Ag. Nikolaos — SX8964 — position and weather

sailwx.info

Track history (hours):
 
Tides and Currents Weather Stations Pressure Air Temp Water Temp Dewpoint Dewpoint Depression Visibility Wind Speed Wind Dir Waves Ship Positions

Ag. Nikolaos

Last reported at 2017-Oct-13 14:21 UTC. Time now 2017-Oct-20 03:30 UTC.
Position N 37°52' E 023°27'.

Length 19 m; draft 2.2 m.

Type: Fishing. MMSI: 239098000.

Date/timePositionNaut miles runAvg speedWind from/ knotsBaromVisibWave heightAir tempDewpointWater temp
2017-Oct-13 14:21N 37°52' E 023°27'3 9.1
2017-Oct-13 14:00N 37°53' E 023°31'4 8.9
2017-Oct-13 13:30N 37°57' E 023°35'2 3.2
2017-Oct-13 13:00N 37°57' E 023°37'0 0.0
2017-Oct-13 12:30N 37°57' E 023°37'0 0.0
2017-Oct-13 12:00N 37°57' E 023°37'0 0.0
2017-Oct-13 11:30N 37°57' E 023°37'0 0.0
2017-Oct-13 11:00N 37°57' E 023°37'0 0.0
2017-Oct-13 10:30N 37°57' E 023°37'0 0.0
2017-Oct-13 10:00N 37°57' E 023°37'0 0.0
2017-Oct-13 09:30N 37°57' E 023°37'0 0.0
2017-Oct-13 09:00N 37°57' E 023°37'0 0.0
2017-Oct-13 08:30N 37°57' E 023°37'0 0.0
2017-Oct-13 08:00N 37°57' E 023°37'0 0.0
2017-Oct-13 07:30N 37°57' E 023°37'0 0.0
2017-Oct-13 07:00N 37°57' E 023°37'0 0.0
2017-Oct-13 06:30N 37°57' E 023°37'0 0.0
2017-Oct-13 06:00N 37°57' E 023°37'0 0.0
2017-Oct-13 05:30N 37°57' E 023°37'0 0.0
2017-Oct-13 05:00N 37°57' E 023°37'0 0.0
2017-Oct-13 04:30N 37°57' E 023°37'0 0.1
2017-Oct-13 04:00N 37°57' E 023°37'2 4.0
2017-Oct-13 03:30N 37°55' E 023°37'  
2017-Oct-09 17:11N 37°50' E 023°29'2 8.9
2017-Oct-09 17:00N 37°51' E 023°30'5 9.1
2017-Oct-09 16:30N 37°55' E 023°34'4 7.4
2017-Oct-09 16:00N 37°57' E 023°37'0 0.0
2017-Oct-09 15:30N 37°57' E 023°37'0 0.0
2017-Oct-09 15:00N 37°57' E 023°37'0 0.0
2017-Oct-09 14:30N 37°57' E 023°37'0 0.0
2017-Oct-09 14:00N 37°57' E 023°37'0 0.0
2017-Oct-09 13:30N 37°57' E 023°37'0 0.0
2017-Oct-09 13:00N 37°57' E 023°37'0 0.0
2017-Oct-09 12:30N 37°57' E 023°37'0 0.0
2017-Oct-09 12:00N 37°57' E 023°37'0 0.0
2017-Oct-09 11:30N 37°57' E 023°37'0 0.0
2017-Oct-09 11:00N 37°57' E 023°37'0 0.0
2017-Oct-09 10:30N 37°57' E 023°37'0 0.0
2017-Oct-09 10:00N 37°57' E 023°37'0 0.0
2017-Oct-09 09:30N 37°57' E 023°37'0 0.0
2017-Oct-09 09:00N 37°57' E 023°37'0 0.0
2017-Oct-09 08:30N 37°57' E 023°37'0 0.0
2017-Oct-09 08:00N 37°57' E 023°37'0 0.0
2017-Oct-09 07:30N 37°57' E 023°37'0 0.0
2017-Oct-09 07:00N 37°57' E 023°37'0 0.0
2017-Oct-09 06:30N 37°57' E 023°37'0 0.0
2017-Oct-09 06:00N 37°57' E 023°37'0 0.0
2017-Oct-09 05:30N 37°57' E 023°37'0 0.0
2017-Oct-09 05:00N 37°57' E 023°37'0 0.0
2017-Oct-09 04:30N 37°57' E 023°37'0 0.0
2017-Oct-09 04:00N 37°57' E 023°37'0 0.0
2017-Oct-09 03:30N 37°57' E 023°37'0 0.0
2017-Oct-09 03:00N 37°57' E 023°37'0 0.0
2017-Oct-09 02:30N 37°57' E 023°37'0 0.0
2017-Oct-09 02:00N 37°57' E 023°37'0 0.0
2017-Oct-09 01:30N 37°57' E 023°37'0 0.0
2017-Oct-09 01:00N 37°57' E 023°37'0 0.0
2017-Oct-09 00:30N 37°57' E 023°37'0 0.0
2017-Oct-09 00:00N 37°57' E 023°37'0 0.0
2017-Oct-08 23:30N 37°57' E 023°37'0 0.0
2017-Oct-08 23:00N 37°57' E 023°37'0 0.0
2017-Oct-08 22:30N 37°57' E 023°37'0 0.0
2017-Oct-08 22:00N 37°57' E 023°37'0 0.0
2017-Oct-08 21:30N 37°57' E 023°37'0 0.0
2017-Oct-08 21:00N 37°57' E 023°37'0 0.0
2017-Oct-08 20:30N 37°57' E 023°37'0 0.0
2017-Oct-08 20:00N 37°57' E 023°37'0 0.0
2017-Oct-08 19:30N 37°57' E 023°37'0 0.0
2017-Oct-08 19:00N 37°57' E 023°37'0 0.0
2017-Oct-08 18:30N 37°57' E 023°37'0 0.0
2017-Oct-08 18:00N 37°57' E 023°37'0 0.0
2017-Oct-08 17:30N 37°57' E 023°37'0 0.0
2017-Oct-08 17:00N 37°57' E 023°37'0 0.0
2017-Oct-08 16:30N 37°57' E 023°37'0 0.0
2017-Oct-08 16:00N 37°57' E 023°37'0 0.0
2017-Oct-08 15:30N 37°57' E 023°37'0 0.0
2017-Oct-08 15:00N 37°57' E 023°37'0 0.0
2017-Oct-08 14:30N 37°57' E 023°37'0 0.0
2017-Oct-08 14:00N 37°57' E 023°37'0 0.0
2017-Oct-08 13:30N 37°57' E 023°37'0 0.0
2017-Oct-08 13:00N 37°57' E 023°37'0 0.0
2017-Oct-08 12:30N 37°57' E 023°37'0 0.0
2017-Oct-08 12:00N 37°57' E 023°37'0 0.0
2017-Oct-08 11:30N 37°57' E 023°37'0 0.0
2017-Oct-08 11:00N 37°57' E 023°37'0 0.0
2017-Oct-08 10:30N 37°57' E 023°37'0 0.0
2017-Oct-08 10:00N 37°57' E 023°37'0 0.0
2017-Oct-08 09:30N 37°57' E 023°37'0 0.0
2017-Oct-08 09:00N 37°57' E 023°37'0 0.0
2017-Oct-08 08:30N 37°57' E 023°37'0 0.0
2017-Oct-08 08:00N 37°57' E 023°37'0 0.0
2017-Oct-08 07:30N 37°57' E 023°37'0 0.0
2017-Oct-08 07:00N 37°57' E 023°37'0 0.0
2017-Oct-08 06:30N 37°57' E 023°37'0 0.0
2017-Oct-08 06:00N 37°57' E 023°37'0 0.0
2017-Oct-08 05:30N 37°57' E 023°37'0 0.0
2017-Oct-08 05:00N 37°57' E 023°37'0 0.0
2017-Oct-08 04:30N 37°57' E 023°37'0 0.0
2017-Oct-08 04:00N 37°57' E 023°37'0 0.0
2017-Oct-08 03:30N 37°57' E 023°37'0 0.0
2017-Oct-08 03:00N 37°57' E 023°37'0 0.0
2017-Oct-08 02:30N 37°57' E 023°37'0 0.0
2017-Oct-08 02:00N 37°57' E 023°37'0 0.0
2017-Oct-08 01:30N 37°57' E 023°37'0 0.0
2017-Oct-08 01:00N 37°57' E 023°37'0 0.0
2017-Oct-08 00:30N 37°57' E 023°37'0 0.0
2017-Oct-08 00:00N 37°57' E 023°37'0 0.0
2017-Oct-07 23:30N 37°57' E 023°37'0 0.0
2017-Oct-07 23:00N 37°57' E 023°37'0 0.0
2017-Oct-07 22:30N 37°57' E 023°37'0 0.0
2017-Oct-07 22:00N 37°57' E 023°37'0 0.0
2017-Oct-07 21:30N 37°57' E 023°37'0 0.0
2017-Oct-07 21:00N 37°57' E 023°37'0 0.0
2017-Oct-07 20:30N 37°57' E 023°37'0 0.0
2017-Oct-07 20:00N 37°57' E 023°37'0 0.0
2017-Oct-07 19:30N 37°57' E 023°37'0 0.0
2017-Oct-07 19:00N 37°57' E 023°37'0 0.0
2017-Oct-07 18:30N 37°57' E 023°37'0 0.0
2017-Oct-07 18:00N 37°57' E 023°37'0 0.0
2017-Oct-07 17:30N 37°57' E 023°37'0 0.0
2017-Oct-07 17:00N 37°57' E 023°37'0 0.0
2017-Oct-07 16:30N 37°57' E 023°37'0 0.0
2017-Oct-07 16:00N 37°57' E 023°37'0 0.0
2017-Oct-07 15:30N 37°57' E 023°37'0 0.0
2017-Oct-07 15:00N 37°57' E 023°37'0 0.0
2017-Oct-07 14:30N 37°57' E 023°37'0 0.0
2017-Oct-07 14:00N 37°57' E 023°37'0 0.0
2017-Oct-07 13:30N 37°57' E 023°37'0 0.0
2017-Oct-07 13:00N 37°57' E 023°37'0 0.0
2017-Oct-07 12:30N 37°57' E 023°37'0 0.0
2017-Oct-07 12:00N 37°57' E 023°37'0 0.0
2017-Oct-07 11:30N 37°57' E 023°37'0 0.0
2017-Oct-07 11:00N 37°57' E 023°37'0 0.0
2017-Oct-07 10:30N 37°57' E 023°37'0 0.0
2017-Oct-07 10:00N 37°57' E 023°37'0 0.0
2017-Oct-07 09:30N 37°57' E 023°37'0 0.0
2017-Oct-07 09:00N 37°57' E 023°37'0 0.0
2017-Oct-07 08:30N 37°57' E 023°37'0 0.0
2017-Oct-07 08:00N 37°57' E 023°37'0 0.0
2017-Oct-07 07:30N 37°57' E 023°37'0 0.0
2017-Oct-07 07:00N 37°57' E 023°37'0 0.0
2017-Oct-07 06:30N 37°57' E 023°37'0 0.0
2017-Oct-07 06:00N 37°57' E 023°37'0 0.0
2017-Oct-07 05:30N 37°57' E 023°37'0 0.0
2017-Oct-07 05:00N 37°57' E 023°37'0 0.0
2017-Oct-07 04:30N 37°57' E 023°37'0 0.0
2017-Oct-07 04:00N 37°57' E 023°37'0 0.0
2017-Oct-07 03:30N 37°57' E 023°37'0 0.0
2017-Oct-07 03:00N 37°57' E 023°37'0 0.0
2017-Oct-07 02:30N 37°57' E 023°37'30 0.8
2017-Oct-05 14:14N 37°52' E 022°60'0 0.0
2017-Oct-05 13:57N 37°52' E 022°60'0 0.0
2017-Oct-04 15:45N 37°52' E 022°60'  
Track history (hours):
 
Tides and Currents Weather Stations Pressure Air Temp Water Temp Dewpoint Dewpoint Depression Visibility Wind Speed Wind Dir Waves Ship Positions

Ag. Nikolaos

Last reported at 2017-Oct-13 14:21 UTC. Time now 2017-Oct-20 03:30 UTC.
Position N 37°52' E 023°27'.

Length 19 m; draft 2.2 m.

Type: Fishing. MMSI: 239098000.

Date/timePositionNaut miles runAvg speedWind from/ knotsBaromVisibWave heightAir tempDewpointWater temp
2017-Oct-13 14:21N 37°52' E 023°27'3 9.1
2017-Oct-13 14:00N 37°53' E 023°31'4 8.9
2017-Oct-13 13:30N 37°57' E 023°35'2 3.2
2017-Oct-13 13:00N 37°57' E 023°37'0 0.0
2017-Oct-13 12:30N 37°57' E 023°37'0 0.0
2017-Oct-13 12:00N 37°57' E 023°37'0 0.0
2017-Oct-13 11:30N 37°57' E 023°37'0 0.0
2017-Oct-13 11:00N 37°57' E 023°37'0 0.0
2017-Oct-13 10:30N 37°57' E 023°37'0 0.0
2017-Oct-13 10:00N 37°57' E 023°37'0 0.0
2017-Oct-13 09:30N 37°57' E 023°37'0 0.0
2017-Oct-13 09:00N 37°57' E 023°37'0 0.0
2017-Oct-13 08:30N 37°57' E 023°37'0 0.0
2017-Oct-13 08:00N 37°57' E 023°37'0 0.0
2017-Oct-13 07:30N 37°57' E 023°37'0 0.0
2017-Oct-13 07:00N 37°57' E 023°37'0 0.0
2017-Oct-13 06:30N 37°57' E 023°37'0 0.0
2017-Oct-13 06:00N 37°57' E 023°37'0 0.0
2017-Oct-13 05:30N 37°57' E 023°37'0 0.0
2017-Oct-13 05:00N 37°57' E 023°37'0 0.0
2017-Oct-13 04:30N 37°57' E 023°37'0 0.1
2017-Oct-13 04:00N 37°57' E 023°37'2 4.0
2017-Oct-13 03:30N 37°55' E 023°37'  
2017-Oct-09 17:11N 37°50' E 023°29'2 8.9
2017-Oct-09 17:00N 37°51' E 023°30'5 9.1
2017-Oct-09 16:30N 37°55' E 023°34'4 7.4
2017-Oct-09 16:00N 37°57' E 023°37'0 0.0
2017-Oct-09 15:30N 37°57' E 023°37'0 0.0
2017-Oct-09 15:00N 37°57' E 023°37'0 0.0
2017-Oct-09 14:30N 37°57' E 023°37'0 0.0
2017-Oct-09 14:00N 37°57' E 023°37'0 0.0
2017-Oct-09 13:30N 37°57' E 023°37'0 0.0
2017-Oct-09 13:00N 37°57' E 023°37'0 0.0
2017-Oct-09 12:30N 37°57' E 023°37'0 0.0
2017-Oct-09 12:00N 37°57' E 023°37'0 0.0
2017-Oct-09 11:30N 37°57' E 023°37'0 0.0
2017-Oct-09 11:00N 37°57' E 023°37'0 0.0
2017-Oct-09 10:30N 37°57' E 023°37'0 0.0
2017-Oct-09 10:00N 37°57' E 023°37'0 0.0
2017-Oct-09 09:30N 37°57' E 023°37'0 0.0
2017-Oct-09 09:00N 37°57' E 023°37'0 0.0
2017-Oct-09 08:30N 37°57' E 023°37'0 0.0
2017-Oct-09 08:00N 37°57' E 023°37'0 0.0
2017-Oct-09 07:30N 37°57' E 023°37'0 0.0
2017-Oct-09 07:00N 37°57' E 023°37'0 0.0
2017-Oct-09 06:30N 37°57' E 023°37'0 0.0
2017-Oct-09 06:00N 37°57' E 023°37'0 0.0
2017-Oct-09 05:30N 37°57' E 023°37'0 0.0
2017-Oct-09 05:00N 37°57' E 023°37'0 0.0
2017-Oct-09 04:30N 37°57' E 023°37'0 0.0
2017-Oct-09 04:00N 37°57' E 023°37'0 0.0
2017-Oct-09 03:30N 37°57' E 023°37'0 0.0
2017-Oct-09 03:00N 37°57' E 023°37'0 0.0
2017-Oct-09 02:30N 37°57' E 023°37'0 0.0
2017-Oct-09 02:00N 37°57' E 023°37'0 0.0
2017-Oct-09 01:30N 37°57' E 023°37'0 0.0
2017-Oct-09 01:00N 37°57' E 023°37'0 0.0
2017-Oct-09 00:30N 37°57' E 023°37'0 0.0
2017-Oct-09 00:00N 37°57' E 023°37'0 0.0
2017-Oct-08 23:30N 37°57' E 023°37'0 0.0
2017-Oct-08 23:00N 37°57' E 023°37'0 0.0
2017-Oct-08 22:30N 37°57' E 023°37'0 0.0
2017-Oct-08 22:00N 37°57' E 023°37'0 0.0
2017-Oct-08 21:30N 37°57' E 023°37'0 0.0
2017-Oct-08 21:00N 37°57' E 023°37'0 0.0
2017-Oct-08 20:30N 37°57' E 023°37'0 0.0
2017-Oct-08 20:00N 37°57' E 023°37'0 0.0
2017-Oct-08 19:30N 37°57' E 023°37'0 0.0
2017-Oct-08 19:00N 37°57' E 023°37'0 0.0
2017-Oct-08 18:30N 37°57' E 023°37'0 0.0
2017-Oct-08 18:00N 37°57' E 023°37'0 0.0
2017-Oct-08 17:30N 37°57' E 023°37'0 0.0
2017-Oct-08 17:00N 37°57' E 023°37'0 0.0
2017-Oct-08 16:30N 37°57' E 023°37'0 0.0
2017-Oct-08 16:00N 37°57' E 023°37'0 0.0
2017-Oct-08 15:30N 37°57' E 023°37'0 0.0
2017-Oct-08 15:00N 37°57' E 023°37'0 0.0
2017-Oct-08 14:30N 37°57' E 023°37'0 0.0
2017-Oct-08 14:00N 37°57' E 023°37'0 0.0
2017-Oct-08 13:30N 37°57' E 023°37'0 0.0
2017-Oct-08 13:00N 37°57' E 023°37'0 0.0
2017-Oct-08 12:30N 37°57' E 023°37'0 0.0
2017-Oct-08 12:00N 37°57' E 023°37'0 0.0
2017-Oct-08 11:30N 37°57' E 023°37'0 0.0
2017-Oct-08 11:00N 37°57' E 023°37'0 0.0
2017-Oct-08 10:30N 37°57' E 023°37'0 0.0
2017-Oct-08 10:00N 37°57' E 023°37'0 0.0
2017-Oct-08 09:30N 37°57' E 023°37'0 0.0
2017-Oct-08 09:00N 37°57' E 023°37'0 0.0
2017-Oct-08 08:30N 37°57' E 023°37'0 0.0
2017-Oct-08 08:00N 37°57' E 023°37'0 0.0
2017-Oct-08 07:30N 37°57' E 023°37'0 0.0
2017-Oct-08 07:00N 37°57' E 023°37'0 0.0
2017-Oct-08 06:30N 37°57' E 023°37'0 0.0
2017-Oct-08 06:00N 37°57' E 023°37'0 0.0
2017-Oct-08 05:30N 37°57' E 023°37'0 0.0
2017-Oct-08 05:00N 37°57' E 023°37'0 0.0
2017-Oct-08 04:30N 37°57' E 023°37'0 0.0
2017-Oct-08 04:00N 37°57' E 023°37'0 0.0
2017-Oct-08 03:30N 37°57' E 023°37'0 0.0
2017-Oct-08 03:00N 37°57' E 023°37'0 0.0
2017-Oct-08 02:30N 37°57' E 023°37'0 0.0
2017-Oct-08 02:00N 37°57' E 023°37'0 0.0
2017-Oct-08 01:30N 37°57' E 023°37'0 0.0
2017-Oct-08 01:00N 37°57' E 023°37'0 0.0
2017-Oct-08 00:30N 37°57' E 023°37'0 0.0
2017-Oct-08 00:00N 37°57' E 023°37'0 0.0
2017-Oct-07 23:30N 37°57' E 023°37'0 0.0
2017-Oct-07 23:00N 37°57' E 023°37'0 0.0
2017-Oct-07 22:30N 37°57' E 023°37'0 0.0
2017-Oct-07 22:00N 37°57' E 023°37'0 0.0
2017-Oct-07 21:30N 37°57' E 023°37'0 0.0
2017-Oct-07 21:00N 37°57' E 023°37'0 0.0
2017-Oct-07 20:30N 37°57' E 023°37'0 0.0
2017-Oct-07 20:00N 37°57' E 023°37'0 0.0
2017-Oct-07 19:30N 37°57' E 023°37'0 0.0
2017-Oct-07 19:00N 37°57' E 023°37'0 0.0
2017-Oct-07 18:30N 37°57' E 023°37'0 0.0
2017-Oct-07 18:00N 37°57' E 023°37'0 0.0
2017-Oct-07 17:30N 37°57' E 023°37'0 0.0
2017-Oct-07 17:00N 37°57' E 023°37'0 0.0
2017-Oct-07 16:30N 37°57' E 023°37'0 0.0
2017-Oct-07 16:00N 37°57' E 023°37'0 0.0
2017-Oct-07 15:30N 37°57' E 023°37'0 0.0
2017-Oct-07 15:00N 37°57' E 023°37'0 0.0
2017-Oct-07 14:30N 37°57' E 023°37'0 0.0
2017-Oct-07 14:00N 37°57' E 023°37'0 0.0
2017-Oct-07 13:30N 37°57' E 023°37'0 0.0
2017-Oct-07 13:00N 37°57' E 023°37'0 0.0
2017-Oct-07 12:30N 37°57' E 023°37'0 0.0
2017-Oct-07 12:00N 37°57' E 023°37'0 0.0
2017-Oct-07 11:30N 37°57' E 023°37'0 0.0
2017-Oct-07 11:00N 37°57' E 023°37'0 0.0
2017-Oct-07 10:30N 37°57' E 023°37'0 0.0
2017-Oct-07 10:00N 37°57' E 023°37'0 0.0
2017-Oct-07 09:30N 37°57' E 023°37'0 0.0
2017-Oct-07 09:00N 37°57' E 023°37'0 0.0
2017-Oct-07 08:30N 37°57' E 023°37'0 0.0
2017-Oct-07 08:00N 37°57' E 023°37'0 0.0
2017-Oct-07 07:30N 37°57' E 023°37'0 0.0
2017-Oct-07 07:00N 37°57' E 023°37'0 0.0
2017-Oct-07 06:30N 37°57' E 023°37'0 0.0
2017-Oct-07 06:00N 37°57' E 023°37'0 0.0
2017-Oct-07 05:30N 37°57' E 023°37'0 0.0
2017-Oct-07 05:00N 37°57' E 023°37'0 0.0
2017-Oct-07 04:30N 37°57' E 023°37'0 0.0
2017-Oct-07 04:00N 37°57' E 023°37'0 0.0
2017-Oct-07 03:30N 37°57' E 023°37'0 0.0
2017-Oct-07 03:00N 37°57' E 023°37'0 0.0
2017-Oct-07 02:30N 37°57' E 023°37'30 0.8
2017-Oct-05 14:14N 37°52' E 022°60'0 0.0
2017-Oct-05 13:57N 37°52' E 022°60'0 0.0
2017-Oct-04 15:45N 37°52' E 022°60'  

Dump ship's entire track history